Time;durP1;ratioP1;P1;durP2;ratioP2;P2;SDS_P1;SDS_P2;PMS_P1;PMS_P2;Temp;Humidity;BMP_temperature;BMP_pressure;BME280_temperature;BME280_humidity;BME280_pressure;Samples;Min_cycle;Max_cycle;Signal;HPM_P1;HPM_P2
2023/09/16 00:02:04;;;;;;;3.47;3.17;;;;;;;;;;5099261;28;20298;-66
2023/09/16 00:04:31;;;;;;;4.10;3.00;;;;;;;;;;5099270;28;20229;-69
2023/09/16 00:06:59;;;;;;;3.28;3.08;;;;;;;;;;5099394;28;20318;-66
2023/09/16 00:09:26;;;;;;;3.33;3.13;;;;;;;;;;5099149;28;20298;-66
2023/09/16 00:11:54;;;;;;;3.13;2.92;;;;;;;;;;5099179;28;20223;-66
2023/09/16 00:14:22;;;;;;;3.65;3.30;;;;;;;;;;5099106;28;20211;-66
2023/09/16 00:16:52;;;;;;;3.50;3.20;;;;;;;;;;5099019;28;20261;-67
2023/09/16 00:19:20;;;;;;;3.50;3.30;;;;;;;;;;5099107;28;20200;-66
2023/09/16 00:21:47;;;;;;;3.58;3.28;;;;;;;;;;5098851;28;20280;-66
2023/09/16 00:24:15;;;;;;;3.65;3.35;;;;;;;;;;5099088;28;20298;-66
2023/09/16 00:26:43;;;;;;;3.47;3.17;;;;;;;;;;5099291;28;20658;-66
2023/09/16 00:29:10;;;;;;;4.40;3.40;;;;;;;;;;5098959;28;20456;-66
2023/09/16 00:31:38;;;;;;;3.03;2.83;;;;;;;;;;5098788;28;20208;-66
2023/09/16 00:34:07;;;;;;;3.50;3.25;;;;;;;;;;5099037;28;20309;-66
2023/09/16 00:36:34;;;;;;;3.58;3.28;;;;;;;;;;5099137;28;20599;-66
2023/09/16 00:39:02;;;;;;;3.40;3.20;;;;;;;;;;5098910;28;20310;-66
2023/09/16 00:41:29;;;;;;;3.42;3.22;;;;;;;;;;5098286;28;20302;-66
2023/09/16 00:43:57;;;;;;;3.63;3.33;;;;;;;;;;5098573;28;20208;-66
2023/09/16 00:46:25;;;;;;;3.60;3.30;;;;;;;;;;5098259;28;20253;-67
2023/09/16 00:48:52;;;;;;;3.33;3.03;;;;;;;;;;5098577;28;20256;-66
2023/09/16 00:51:21;;;;;;;3.70;3.40;;;;;;;;;;5098271;28;20522;-67
2023/09/16 00:53:49;;;;;;;3.67;3.38;;;;;;;;;;5098571;28;20204;-66
2023/09/16 00:56:16;;;;;;;3.50;3.20;;;;;;;;;;5098791;28;20254;-66
2023/09/16 00:58:44;;;;;;;3.30;3.10;;;;;;;;;;5098490;28;20265;-66
2023/09/16 01:01:12;;;;;;;3.25;3.05;;;;;;;;;;5098257;28;20294;-66
2023/09/16 01:03:41;;;;;;;3.67;3.38;;;;;;;;;;5098018;28;20332;-66
2023/09/16 01:06:10;;;;;;;3.50;3.20;;;;;;;;;;5098165;28;20249;-66
2023/09/16 01:08:38;;;;;;;3.65;3.35;;;;;;;;;;5098315;28;20211;-66
2023/09/16 01:11:06;;;;;;;3.67;3.33;;;;;;;;;;5098326;28;20302;-66
2023/09/16 01:13:34;;;;;;;3.55;3.33;;;;;;;;;;5097796;28;20574;-66
2023/09/16 01:16:10;;;;;;;3.47;3.25;;;;;;;;;;5098066;28;20294;-66
2023/09/16 01:18:41;;;;;;;3.53;3.33;;;;;;;;;;5098362;28;20475;-66
2023/09/16 01:21:08;;;;;;;3.22;3.03;;;;;;;;;;5098102;28;20280;-66
2023/09/16 01:23:37;;;;;;;3.28;3.05;;;;;;;;;;5098435;28;20265;-66
2023/09/16 01:26:06;;;;;;;3.30;3.10;;;;;;;;;;5098404;28;20223;-66
2023/09/16 01:28:34;;;;;;;3.20;3.00;;;;;;;;;;5098449;28;20211;-66
2023/09/16 01:31:02;;;;;;;3.70;3.40;;;;;;;;;;5098135;28;20204;-66
2023/09/16 01:33:36;;;;;;;3.10;2.90;;;;;;;;;;5097544;28;20265;-66
2023/09/16 01:36:06;;;;;;;3.45;3.15;;;;;;;;;;5097894;28;20203;-66
2023/09/16 01:38:34;;;;;;;3.30;3.10;;;;;;;;;;5097950;28;20281;-66
2023/09/16 01:41:03;;;;;;;3.50;3.25;;;;;;;;;;5097774;28;20242;-66
2023/09/16 01:43:32;;;;;;;3.13;2.92;;;;;;;;;;5097799;28;20204;-66
2023/09/16 01:45:59;;;;;;;3.20;3.00;;;;;;;;;;5097769;28;20204;-66
2023/09/16 01:48:27;;;;;;;3.60;3.38;;;;;;;;;;5097561;28;20321;-66
2023/09/16 01:50:54;;;;;;;3.25;3.00;;;;;;;;;;5097877;28;20212;-66
2023/09/16 01:53:22;;;;;;;3.20;3.00;;;;;;;;;;5098126;28;20294;-66
2023/09/16 01:55:49;;;;;;;3.58;3.30;;;;;;;;;;5097617;28;20207;-67
2023/09/16 01:58:17;;;;;;;3.38;3.17;;;;;;;;;;5097600;28;20295;-66
2023/09/16 02:00:46;;;;;;;3.20;3.00;;;;;;;;;;5097702;28;20269;-66
2023/09/16 02:03:13;;;;;;;2.80;2.60;;;;;;;;;;5097680;28;20204;-66
2023/09/16 02:05:41;;;;;;;3.40;3.13;;;;;;;;;;5097412;28;20286;-66
2023/09/16 02:08:08;;;;;;;3.60;3.17;;;;;;;;;;5097363;28;20318;-66
2023/09/16 02:10:36;;;;;;;3.35;3.05;;;;;;;;;;5098396;28;20290;-66
2023/09/16 02:13:03;;;;;;;3.28;3.08;;;;;;;;;;5097436;28;20326;-66
2023/09/16 02:15:30;;;;;;;3.55;3.25;;;;;;;;;;5097237;28;20269;-66
2023/09/16 02:17:59;;;;;;;3.70;3.40;;;;;;;;;;5097791;28;20298;-66
2023/09/16 02:20:27;;;;;;;3.33;3.08;;;;;;;;;;5098065;28;20544;-66
2023/09/16 02:22:55;;;;;;;3.55;3.25;;;;;;;;;;5097613;28;20208;-66
2023/09/16 02:25:22;;;;;;;3.72;3.42;;;;;;;;;;5097635;28;20265;-66
2023/09/16 02:27:50;;;;;;;3.50;3.20;;;;;;;;;;5097360;28;20223;-66
2023/09/16 02:30:17;;;;;;;3.50;3.20;;;;;;;;;;5097422;28;20290;-66
2023/09/16 02:32:45;;;;;;;3.40;2.97;;;;;;;;;;5097289;28;20234;-66
2023/09/16 02:35:14;;;;;;;3.78;3.25;;;;;;;;;;5097390;28;20214;-66
2023/09/16 02:37:41;;;;;;;3.42;3.22;;;;;;;;;;5097591;28;20210;-66
2023/09/16 02:40:09;;;;;;;3.85;3.55;;;;;;;;;;5097061;28;20204;-66
2023/09/16 02:42:36;;;;;;;3.35;3.15;;;;;;;;;;5097623;28;20550;-66
2023/09/16 02:45:04;;;;;;;3.63;3.33;;;;;;;;;;5099066;28;20239;-66
2023/09/16 02:47:33;;;;;;;3.63;3.42;;;;;;;;;;5100883;28;20695;-66
2023/09/16 02:50:01;;;;;;;3.45;3.15;;;;;;;;;;5101443;28;20203;-66
2023/09/16 02:52:30;;;;;;;3.60;3.33;;;;;;;;;;5101363;28;20204;-66
2023/09/16 02:54:57;;;;;;;3.83;3.53;;;;;;;;;;5101606;28;20211;-66
2023/09/16 02:57:25;;;;;;;3.30;3.10;;;;;;;;;;5101054;28;20290;-66
2023/09/16 02:59:53;;;;;;;3.25;3.05;;;;;;;;;;5101383;28;20561;-66
2023/09/16 03:02:21;;;;;;;3.83;2.80;;;;;;;;;;5101014;28;20204;-67
2023/09/16 03:04:48;;;;;;;3.42;3.13;;;;;;;;;;5100952;28;20227;-66
2023/09/16 03:07:15;;;;;;;3.70;3.40;;;;;;;;;;5101186;28;20314;-66
2023/09/16 03:09:44;;;;;;;3.70;3.40;;;;;;;;;;5100816;28;20210;-66
2023/09/16 03:12:11;;;;;;;3.17;2.97;;;;;;;;;;5100902;28;20556;-66
2023/09/16 03:14:39;;;;;;;3.20;3.00;;;;;;;;;;5100479;28;20504;-66
2023/09/16 03:17:07;;;;;;;3.17;2.97;;;;;;;;;;5100467;28;20468;-66
2023/09/16 03:19:34;;;;;;;3.30;3.05;;;;;;;;;;5100812;28;20587;-66
2023/09/16 03:22:01;;;;;;;3.47;3.17;;;;;;;;;;5100733;28;20298;-66
2023/09/16 03:24:29;;;;;;;3.08;2.88;;;;;;;;;;5100754;28;20204;-66
2023/09/16 03:26:58;;;;;;;3.42;3.13;;;;;;;;;;5100528;28;20616;-66
2023/09/16 03:29:26;;;;;;;3.72;3.42;;;;;;;;;;5100259;28;20294;-66
2023/09/16 03:31:53;;;;;;;3.80;3.50;;;;;;;;;;5099990;28;20211;-66
2023/09/16 03:34:20;;;;;;;3.50;3.20;;;;;;;;;;5100770;28;20314;-65
2023/09/16 03:36:48;;;;;;;3.42;3.13;;;;;;;;;;5100227;28;20618;-66
2023/09/16 03:39:16;;;;;;;3.00;2.80;;;;;;;;;;5100143;28;20243;-68
2023/09/16 03:41:43;;;;;;;3.40;3.10;;;;;;;;;;5099956;28;20203;-66
2023/09/16 03:44:13;;;;;;;3.40;3.10;;;;;;;;;;5100225;28;20212;-66
2023/09/16 03:46:41;;;;;;;3.30;3.10;;;;;;;;;;5099661;28;20204;-67
2023/09/16 03:49:08;;;;;;;3.55;3.25;;;;;;;;;;5100102;28;20207;-68
2023/09/16 03:51:36;;;;;;;3.20;3.00;;;;;;;;;;5099629;28;20294;-66
2023/09/16 03:54:06;;;;;;;3.38;3.08;;;;;;;;;;5100111;28;20285;-66
2023/09/16 03:56:34;;;;;;;3.25;3.05;;;;;;;;;;5099788;28;20542;-67
2023/09/16 03:59:02;;;;;;;3.55;2.90;;;;;;;;;;5099794;28;20200;-68
2023/09/16 04:01:31;;;;;;;3.20;2.90;;;;;;;;;;5099758;28;20208;-67
2023/09/16 04:03:58;;;;;;;3.53;3.22;;;;;;;;;;5099772;28;20294;-66
2023/09/16 04:06:26;;;;;;;3.15;2.85;;;;;;;;;;5099743;28;20214;-66
2023/09/16 04:08:54;;;;;;;3.00;2.80;;;;;;;;;;5099567;28;20318;-66
2023/09/16 04:11:22;;;;;;;2.88;2.67;;;;;;;;;;5099531;28;20678;-66
2023/09/16 04:13:49;;;;;;;3.08;2.88;;;;;;;;;;5099260;28;20239;-66
2023/09/16 04:16:17;;;;;;;2.88;2.67;;;;;;;;;;5099629;28;20239;-68
2023/09/16 04:18:45;;;;;;;3.13;2.90;;;;;;;;;;5099609;28;20222;-67
2023/09/16 04:21:13;;;;;;;2.83;2.63;;;;;;;;;;5099672;28;20208;-68
2023/09/16 04:23:41;;;;;;;3.17;2.97;;;;;;;;;;5099385;28;20294;-68
2023/09/16 04:26:12;;;;;;;2.70;2.50;;;;;;;;;;5099004;28;20200;-68
2023/09/16 04:28:39;;;;;;;3.00;2.80;;;;;;;;;;5098939;28;20594;-68
2023/09/16 04:31:08;;;;;;;3.10;2.85;;;;;;;;;;5099646;28;20290;-68
2023/09/16 04:33:37;;;;;;;2.83;2.63;;;;;;;;;;5099279;28;20215;-68
2023/09/16 04:36:07;;;;;;;3.05;2.85;;;;;;;;;;5099196;28;20272;-68
2023/09/16 04:38:36;;;;;;;2.90;2.70;;;;;;;;;;5099341;28;20272;-68
2023/09/16 04:41:05;;;;;;;2.80;2.60;;;;;;;;;;5098903;28;20268;-68
2023/09/16 04:43:32;;;;;;;2.90;2.70;;;;;;;;;;5099002;28;20204;-68
2023/09/16 04:46:00;;;;;;;3.00;2.80;;;;;;;;;;5098960;28;20204;-68
2023/09/16 04:48:28;;;;;;;3.03;2.83;;;;;;;;;;5098702;28;20227;-68
2023/09/16 04:50:56;;;;;;;3.45;3.15;;;;;;;;;;5098496;28;20597;-68
2023/09/16 04:53:25;;;;;;;3.47;3.17;;;;;;;;;;5098881;28;20203;-68
2023/09/16 04:56:00;;;;;;;3.30;3.00;;;;;;;;;;5098547;28;20287;-68
2023/09/16 04:58:27;;;;;;;3.30;3.00;;;;;;;;;;5098523;28;20206;-67
2023/09/16 05:00:54;;;;;;;3.17;2.97;;;;;;;;;;5098512;28;20306;-68
2023/09/16 05:03:22;;;;;;;2.92;2.72;;;;;;;;;;5098332;28;20203;-67
2023/09/16 05:05:50;;;;;;;3.20;3.00;;;;;;;;;;5098420;28;20211;-67
2023/09/16 05:08:17;;;;;;;3.13;2.92;;;;;;;;;;5097785;28;20223;-68
2023/09/16 05:10:46;;;;;;;3.03;2.83;;;;;;;;;;5098327;28;20218;-68
2023/09/16 05:13:13;;;;;;;3.28;2.97;;;;;;;;;;5098507;28;20326;-67
2023/09/16 05:15:41;;;;;;;2.70;2.50;;;;;;;;;;5098205;28;20592;-68
2023/09/16 05:18:09;;;;;;;3.30;3.00;;;;;;;;;;5098603;28;20607;-67
2023/09/16 05:20:37;;;;;;;2.95;2.75;;;;;;;;;;5098203;28;20302;-68
2023/09/16 05:23:05;;;;;;;3.00;2.80;;;;;;;;;;5098372;28;20298;-67
2023/09/16 05:25:32;;;;;;;2.90;2.70;;;;;;;;;;5098275;28;20250;-68
2023/09/16 05:28:01;;;;;;;3.03;2.80;;;;;;;;;;5097755;28;20313;-68
2023/09/16 05:30:29;;;;;;;3.15;2.95;;;;;;;;;;5097704;28;20290;-67
2023/09/16 05:32:56;;;;;;;3.28;3.08;;;;;;;;;;5097928;28;20566;-68
2023/09/16 05:35:24;;;;;;;3.20;3.00;;;;;;;;;;5097999;28;20303;-67
2023/09/16 05:37:51;;;;;;;3.30;2.97;;;;;;;;;;5097867;28;20199;-68
2023/09/16 05:40:19;;;;;;;3.50;3.22;;;;;;;;;;5097567;28;20211;-66
2023/09/16 05:42:46;;;;;;;3.50;3.20;;;;;;;;;;5098333;28;20199;-67
2023/09/16 05:45:16;;;;;;;3.38;3.15;;;;;;;;;;5097499;28;20508;-66
2023/09/16 05:47:44;;;;;;;3.90;3.60;;;;;;;;;;5097584;28;20227;-68
2023/09/16 05:50:14;;;;;;;3.67;3.38;;;;;;;;;;5097149;28;20264;-67
2023/09/16 05:52:41;;;;;;;3.72;3.42;;;;;;;;;;5096902;28;20211;-67
2023/09/16 05:55:09;;;;;;;3.75;3.45;;;;;;;;;;5097259;28;20316;-67
2023/09/16 05:57:36;;;;;;;3.70;3.40;;;;;;;;;;5097332;28;20686;-67
2023/09/16 06:00:04;;;;;;;3.65;3.35;;;;;;;;;;5097177;28;20243;-67
2023/09/16 06:02:38;;;;;;;4.40;3.67;;;;;;;;;;5097262;28;20203;-67
2023/09/16 06:05:06;;;;;;;3.90;3.60;;;;;;;;;;5096775;28;20527;-66
2023/09/16 06:07:34;;;;;;;3.78;3.47;;;;;;;;;;5097471;28;20298;-66
2023/09/16 06:10:01;;;;;;;3.90;3.60;;;;;;;;;;5097421;28;20203;-66
2023/09/16 06:12:29;;;;;;;3.67;3.38;;;;;;;;;;5096706;28;20242;-65
2023/09/16 06:14:56;;;;;;;3.80;3.50;;;;;;;;;;5097151;28;20640;-66
2023/09/16 06:17:24;;;;;;;3.75;3.45;;;;;;;;;;5096897;28;20294;-67
2023/09/16 06:19:54;;;;;;;3.83;3.42;;;;;;;;;;5101223;28;20214;-69
2023/09/16 06:22:21;;;;;;;3.70;3.40;;;;;;;;;;5101202;28;20203;-66
2023/09/16 06:24:49;;;;;;;3.95;3.60;;;;;;;;;;5101157;28;20289;-66
2023/09/16 06:27:17;;;;;;;3.72;3.40;;;;;;;;;;5101101;28;20202;-66
2023/09/16 06:29:46;;;;;;;3.88;3.50;;;;;;;;;;5101431;28;20237;-66
2023/09/16 06:32:14;;;;;;;3.35;3.15;;;;;;;;;;5100209;28;20204;-66
2023/09/16 06:34:41;;;;;;;3.78;3.47;;;;;;;;;;5100178;28;20203;-66
2023/09/16 06:37:10;;;;;;;4.18;3.63;;;;;;;;;;5100371;28;20491;-66
2023/09/16 06:39:40;;;;;;;3.70;3.40;;;;;;;;;;5100813;28;20209;-66
2023/09/16 06:42:07;;;;;;;3.60;3.30;;;;;;;;;;5101227;28;20230;-66
2023/09/16 06:44:34;;;;;;;3.50;3.28;;;;;;;;;;5101091;28;20249;-66
2023/09/16 06:47:02;;;;;;;4.00;3.67;;;;;;;;;;5100750;28;20207;-67
2023/09/16 06:49:29;;;;;;;4.18;3.65;;;;;;;;;;5100356;28;20227;-67
2023/09/16 06:51:56;;;;;;;3.63;3.30;;;;;;;;;;5100101;28;20290;-66
2023/09/16 06:54:26;;;;;;;3.90;3.60;;;;;;;;;;5100228;28;20235;-67
2023/09/16 06:56:53;;;;;;;3.72;3.42;;;;;;;;;;5100431;28;20298;-67
2023/09/16 06:59:20;;;;;;;4.35;3.80;;;;;;;;;;5099905;28;20295;-66
2023/09/16 07:01:48;;;;;;;3.78;3.47;;;;;;;;;;5099557;28;20688;-67
2023/09/16 07:04:15;;;;;;;4.28;3.80;;;;;;;;;;5100093;28;20286;-67
2023/09/16 07:06:43;;;;;;;3.80;3.50;;;;;;;;;;5100079;28;20202;-67
2023/09/16 07:09:12;;;;;;;4.53;4.20;;;;;;;;;;5099792;28;20220;-67
2023/09/16 07:11:41;;;;;;;4.20;3.90;;;;;;;;;;5098898;28;20211;-67
2023/09/16 07:14:08;;;;;;;4.10;3.80;;;;;;;;;;5099837;28;20298;-67
2023/09/16 07:16:38;;;;;;;4.43;4.03;;;;;;;;;;5099954;28;20246;-67
2023/09/16 07:19:05;;;;;;;4.05;3.75;;;;;;;;;;5100064;28;20227;-67
2023/09/16 07:21:33;;;;;;;4.40;4.00;;;;;;;;;;5098845;28;20293;-66
2023/09/16 07:24:01;;;;;;;4.82;4.43;;;;;;;;;;5099474;28;20286;-67
2023/09/16 07:26:28;;;;;;;5.18;4.68;;;;;;;;;;5099363;28;20671;-66
2023/09/16 07:28:57;;;;;;;4.82;4.32;;;;;;;;;;5099543;28;20234;-66
2023/09/16 07:31:25;;;;;;;4.80;4.40;;;;;;;;;;5098602;28;20199;-66
2023/09/16 07:33:53;;;;;;;4.55;4.15;;;;;;;;;;5099391;28;20241;-66
2023/09/16 07:36:21;;;;;;;4.95;4.50;;;;;;;;;;5099225;28;20250;-66
2023/09/16 07:38:48;;;;;;;5.03;4.53;;;;;;;;;;5099679;28;20542;-66
2023/09/16 07:41:16;;;;;;;4.78;4.38;;;;;;;;;;5098950;28;20290;-66
2023/09/16 07:43:43;;;;;;;6.78;4.40;;;;;;;;;;5099080;28;20195;-66
2023/09/16 07:46:12;;;;;;;6.30;4.72;;;;;;;;;;5098905;28;20203;-66
2023/09/16 07:48:40;;;;;;;5.25;4.85;;;;;;;;;;5098752;28;20228;-66
2023/09/16 07:51:07;;;;;;;4.88;4.45;;;;;;;;;;5098734;28;20297;-66
2023/09/16 07:53:35;;;;;;;5.30;4.68;;;;;;;;;;5098638;28;20229;-66
2023/09/16 07:56:02;;;;;;;5.13;4.63;;;;;;;;;;5098921;28;20291;-66
2023/09/16 07:58:29;;;;;;;4.82;4.43;;;;;;;;;;5098130;28;20210;-66
2023/09/16 08:00:57;;;;;;;5.25;4.75;;;;;;;;;;5097990;28;20199;-66
2023/09/16 08:03:26;;;;;;;5.35;4.72;;;;;;;;;;5097889;28;20291;-67
2023/09/16 08:05:53;;;;;;;5.60;5.10;;;;;;;;;;5098692;28;20217;-66
2023/09/16 08:08:21;;;;;;;5.10;4.60;;;;;;;;;;5097748;28;20310;-66
2023/09/16 08:10:50;;;;;;;5.38;4.88;;;;;;;;;;5097983;28;20214;-66
2023/09/16 08:13:17;;;;;;;5.45;4.88;;;;;;;;;;5097905;28;20293;-66
2023/09/16 08:15:44;;;;;;;5.55;5.03;;;;;;;;;;5098209;28;20247;-66
2023/09/16 08:18:12;;;;;;;5.15;4.68;;;;;;;;;;5097908;28;20302;-66
2023/09/16 08:20:41;;;;;;;4.68;4.28;;;;;;;;;;5097866;28;20287;-66
2023/09/16 08:23:09;;;;;;;5.82;4.40;;;;;;;;;;5097590;28;20301;-66
2023/09/16 08:25:36;;;;;;;4.47;4.07;;;;;;;;;;5097246;28;20238;-66
2023/09/16 08:28:04;;;;;;;4.70;4.30;;;;;;;;;;5097539;28;20243;-66
2023/09/16 08:30:31;;;;;;;4.80;3.95;;;;;;;;;;5097443;28;20291;-66
2023/09/16 08:32:59;;;;;;;5.07;4.35;;;;;;;;;;5097226;28;20718;-66
2023/09/16 08:35:26;;;;;;;5.30;4.40;;;;;;;;;;5097379;28;20246;-66
2023/09/16 08:37:58;;;;;;;4.82;4.03;;;;;;;;;;5097870;28;20206;-67
2023/09/16 08:40:29;;;;;;;4.55;4.15;;;;;;;;;;5096896;28;20557;-66
2023/09/16 08:43:03;;;;;;;4.68;4.18;;;;;;;;;;5096374;28;20215;-66
2023/09/16 08:45:33;;;;;;;4.70;4.30;;;;;;;;;;5096669;28;20210;-66
2023/09/16 08:48:02;;;;;;;5.28;4.60;;;;;;;;;;5097373;28;20247;-66
2023/09/16 08:50:31;;;;;;;4.57;4.18;;;;;;;;;;5096449;28;20642;-66
2023/09/16 08:53:01;;;;;;;4.88;4.47;;;;;;;;;;5097539;28;20204;-67
2023/09/16 08:55:29;;;;;;;5.03;4.53;;;;;;;;;;5097145;28;20286;-66
2023/09/16 08:57:59;;;;;;;4.65;4.25;;;;;;;;;;5097080;28;20242;-66
2023/09/16 09:00:26;;;;;;;5.32;4.30;;;;;;;;;;5096709;28;20494;-66
2023/09/16 09:02:54;;;;;;;4.82;4.32;;;;;;;;;;5095840;28;20277;-66
2023/09/16 09:05:23;;;;;;;4.88;4.43;;;;;;;;;;5095192;28;20206;-66
2023/09/16 09:07:51;;;;;;;4.75;4.22;;;;;;;;;;5096097;28;20482;-67
2023/09/16 09:10:20;;;;;;;4.47;4.07;;;;;;;;;;5096219;28;20227;-66
2023/09/16 09:12:47;;;;;;;4.65;4.25;;;;;;;;;;5096344;28;20322;-66
2023/09/16 09:15:15;;;;;;;4.60;4.15;;;;;;;;;;5097234;28;20204;-66
2023/09/16 09:17:44;;;;;;;4.70;4.30;;;;;;;;;;5096657;28;20229;-66
2023/09/16 09:20:15;;;;;;;4.93;4.53;;;;;;;;;;5096518;28;20290;-66
2023/09/16 09:22:43;;;;;;;4.65;4.25;;;;;;;;;;5096130;28;20290;-66
2023/09/16 09:25:12;;;;;;;4.80;4.40;;;;;;;;;;5095547;28;20298;-66
2023/09/16 09:27:40;;;;;;;4.80;4.50;;;;;;;;;;5095880;28;20214;-66
2023/09/16 09:30:10;;;;;;;4.72;4.32;;;;;;;;;;5095377;28;20241;-66
2023/09/16 09:32:37;;;;;;;4.95;4.55;;;;;;;;;;5095561;28;20709;-67
2023/09/16 09:35:08;;;;;;;4.80;4.40;;;;;;;;;;5095813;28;20528;-66
2023/09/16 09:37:36;;;;;;;5.03;4.63;;;;;;;;;;5096362;28;20592;-66
2023/09/16 09:40:07;;;;;;;4.75;4.35;;;;;;;;;;5096632;28;20630;-66
2023/09/16 09:42:34;;;;;;;4.63;4.22;;;;;;;;;;5095737;28;20257;-66
2023/09/16 09:45:03;;;;;;;4.93;4.50;;;;;;;;;;5094777;28;20206;-66
2023/09/16 09:47:31;;;;;;;5.00;4.60;;;;;;;;;;5095592;28;20949;-66
2023/09/16 09:49:59;;;;;;;4.50;4.10;;;;;;;;;;5095006;28;20647;-66
2023/09/16 09:52:27;;;;;;;4.70;4.30;;;;;;;;;;5095997;28;20247;-67
2023/09/16 09:54:55;;;;;;;4.63;4.22;;;;;;;;;;5095984;28;20644;-66
2023/09/16 09:57:23;;;;;;;4.63;4.22;;;;;;;;;;5095811;28;20213;-66
2023/09/16 09:59:50;;;;;;;4.35;4.05;;;;;;;;;;5095744;28;20286;-66
2023/09/16 10:02:19;;;;;;;5.15;4.28;;;;;;;;;;5095025;28;20214;-68
2023/09/16 10:04:48;;;;;;;4.80;4.50;;;;;;;;;;5096067;28;20590;-66
2023/09/16 10:07:17;;;;;;;4.68;4.28;;;;;;;;;;5095660;28;20302;-67
2023/09/16 10:09:45;;;;;;;4.88;4.47;;;;;;;;;;5094942;28;20680;-66
2023/09/16 10:12:12;;;;;;;4.70;4.30;;;;;;;;;;5094940;28;20258;-66
2023/09/16 10:14:41;;;;;;;4.68;4.28;;;;;;;;;;5095541;28;20268;-66
2023/09/16 10:17:08;;;;;;;4.75;4.38;;;;;;;;;;5095428;28;20337;-66
2023/09/16 10:19:37;;;;;;;4.43;4.05;;;;;;;;;;5094792;28;20202;-69
2023/09/16 10:22:05;;;;;;;4.70;4.30;;;;;;;;;;5095175;28;20584;-66
2023/09/16 10:24:33;;;;;;;4.70;4.32;;;;;;;;;;5095699;28;20209;-67
2023/09/16 10:27:04;;;;;;;4.55;4.15;;;;;;;;;;5095359;28;20199;-66
2023/09/16 10:29:32;;;;;;;4.25;3.95;;;;;;;;;;5095509;28;20263;-67
2023/09/16 10:32:00;;;;;;;4.65;4.30;;;;;;;;;;5095492;28;20302;-67
2023/09/16 10:34:28;;;;;;;4.20;3.90;;;;;;;;;;5095475;28;20243;-67
2023/09/16 10:36:57;;;;;;;3.85;3.55;;;;;;;;;;5095281;28;20210;-67
2023/09/16 10:39:24;;;;;;;4.15;3.85;;;;;;;;;;5094779;28;20238;-67
2023/09/16 10:41:53;;;;;;;4.35;3.90;;;;;;;;;;5094882;28;20210;-67
2023/09/16 10:44:20;;;;;;;4.32;3.97;;;;;;;;;;5094730;28;20230;-66
2023/09/16 10:46:48;;;;;;;3.95;3.65;;;;;;;;;;5095436;28;20654;-67
2023/09/16 10:49:16;;;;;;;4.20;3.90;;;;;;;;;;5095589;28;20319;-67
2023/09/16 10:51:44;;;;;;;4.35;3.95;;;;;;;;;;5094938;28;20299;-67
2023/09/16 10:54:18;;;;;;;4.30;4.00;;;;;;;;;;5095490;28;20214;-67
2023/09/16 10:56:45;;;;;;;3.90;3.60;;;;;;;;;;5095495;28;20283;-67
2023/09/16 10:59:15;;;;;;;4.10;3.80;;;;;;;;;;5093849;28;20214;-66
2023/09/16 11:01:47;;;;;;;4.03;3.72;;;;;;;;;;5093646;28;20204;-67
2023/09/16 11:04:16;;;;;;;4.18;3.88;;;;;;;;;;5094806;28;20196;-66
2023/09/16 11:06:47;;;;;;;4.28;3.97;;;;;;;;;;5096995;28;20305;-67
2023/09/16 11:09:16;;;;;;;4.07;3.65;;;;;;;;;;5098113;28;20203;-67
2023/09/16 11:11:44;;;;;;;3.83;3.47;;;;;;;;;;5097926;28;20268;-66
2023/09/16 11:14:15;;;;;;;4.13;3.72;;;;;;;;;;5097528;28;20485;-67
2023/09/16 11:16:46;;;;;;;4.00;3.70;;;;;;;;;;5098013;28;20229;-67
2023/09/16 11:19:17;;;;;;;3.40;3.20;;;;;;;;;;5097915;28;20290;-67
2023/09/16 11:21:45;;;;;;;3.60;3.30;;;;;;;;;;5098830;28;20208;-67
2023/09/16 11:24:12;;;;;;;4.00;3.70;;;;;;;;;;5098463;28;20478;-66
2023/09/16 11:26:42;;;;;;;3.90;3.60;;;;;;;;;;5098502;28;20204;-67
2023/09/16 11:29:17;;;;;;;3.50;3.20;;;;;;;;;;5097388;28;20660;-67
2023/09/16 11:31:45;;;;;;;3.47;3.28;;;;;;;;;;5097966;28;20211;-67
2023/09/16 11:34:12;;;;;;;3.50;3.30;;;;;;;;;;5098073;28;20306;-67
2023/09/16 11:36:44;;;;;;;3.35;3.15;;;;;;;;;;5098211;28;20200;-67
2023/09/16 11:39:17;;;;;;;3.47;3.17;;;;;;;;;;5098170;28;20204;-66
2023/09/16 11:41:48;;;;;;;3.40;3.20;;;;;;;;;;5097549;28;20200;-67
2023/09/16 11:44:16;;;;;;;3.45;3.20;;;;;;;;;;5097208;28;20208;-67
2023/09/16 11:46:47;;;;;;;3.70;3.40;;;;;;;;;;5098785;28;20214;-67
2023/09/16 11:49:16;;;;;;;3.28;3.08;;;;;;;;;;5097973;28;20503;-67
2023/09/16 11:51:49;;;;;;;4.03;3.33;;;;;;;;;;5098669;28;20504;-67
2023/09/16 11:54:17;;;;;;;3.83;3.53;;;;;;;;;;5097696;28;20281;-67
2023/09/16 11:56:46;;;;;;;3.58;3.28;;;;;;;;;;5097121;28;20581;-67
2023/09/16 11:59:14;;;;;;;3.50;3.20;;;;;;;;;;5098173;28;20200;-67
2023/09/16 12:01:42;;;;;;;3.95;3.65;;;;;;;;;;5098004;28;20226;-67
2023/09/16 12:04:11;;;;;;;3.42;3.22;;;;;;;;;;5097583;28;20218;-67
2023/09/16 12:06:39;;;;;;;3.30;3.00;;;;;;;;;;5098381;28;20286;-67
2023/09/16 12:09:08;;;;;;;3.47;3.17;;;;;;;;;;5096867;28;20246;-67
2023/09/16 12:11:36;;;;;;;3.53;3.22;;;;;;;;;;5095992;28;20235;-67
2023/09/16 12:14:07;;;;;;;3.42;3.22;;;;;;;;;;5097624;28;20203;-67
2023/09/16 12:16:36;;;;;;;3.45;3.15;;;;;;;;;;5097877;28;20203;-67
2023/09/16 12:19:03;;;;;;;3.47;3.28;;;;;;;;;;5097175;28;20655;-67
2023/09/16 12:21:31;;;;;;;3.83;3.53;;;;;;;;;;5096664;28;20207;-66
2023/09/16 12:23:59;;;;;;;3.53;3.22;;;;;;;;;;5097150;28;20619;-66
2023/09/16 12:26:26;;;;;;;3.67;3.30;;;;;;;;;;5095748;28;20204;-66
2023/09/16 12:28:54;;;;;;;3.75;3.45;;;;;;;;;;5096737;28;20206;-66
2023/09/16 12:31:25;;;;;;;3.20;3.00;;;;;;;;;;5097194;28;20724;-66
2023/09/16 12:33:56;;;;;;;3.75;3.45;;;;;;;;;;5096761;28;20203;-67
2023/09/16 12:36:25;;;;;;;3.65;3.40;;;;;;;;;;5097250;28;20519;-66
2023/09/16 12:38:54;;;;;;;3.17;2.97;;;;;;;;;;5095577;28;20210;-66
2023/09/16 12:41:22;;;;;;;3.22;3.03;;;;;;;;;;5097470;28;20199;-66
2023/09/16 12:43:50;;;;;;;3.50;3.30;;;;;;;;;;5096866;28;20218;-67
2023/09/16 12:46:20;;;;;;;3.88;3.58;;;;;;;;;;5097222;28;20203;-69
2023/09/16 12:48:50;;;;;;;4.32;3.30;;;;;;;;;;5096480;28;20215;-68
2023/09/16 12:51:18;;;;;;;3.50;3.30;;;;;;;;;;5096175;28;20230;-67
2023/09/16 12:53:47;;;;;;;3.83;3.53;;;;;;;;;;5096375;28;20792;-67
2023/09/16 12:56:17;;;;;;;3.80;3.50;;;;;;;;;;5096089;28;20247;-67
2023/09/16 12:58:45;;;;;;;3.83;3.53;;;;;;;;;;5096673;28;20199;-67
2023/09/16 13:01:17;;;;;;;3.45;3.20;;;;;;;;;;5095920;28;20261;-67
2023/09/16 13:03:46;;;;;;;3.70;3.40;;;;;;;;;;5095869;28;20203;-67
2023/09/16 13:06:15;;;;;;;4.03;3.72;;;;;;;;;;5095677;28;20210;-67
2023/09/16 13:08:42;;;;;;;3.70;3.40;;;;;;;;;;5095070;28;20562;-67
2023/09/16 13:11:10;;;;;;;3.70;3.40;;;;;;;;;;5095378;28;20231;-68
2023/09/16 13:13:38;;;;;;;4.00;3.70;;;;;;;;;;5095692;28;20224;-67
2023/09/16 13:16:07;;;;;;;3.88;3.63;;;;;;;;;;5096084;28;20200;-67
2023/09/16 13:18:37;;;;;;;4.30;4.00;;;;;;;;;;5094823;28;20275;-67
2023/09/16 13:21:05;;;;;;;4.25;3.95;;;;;;;;;;5094371;28;20199;-67
2023/09/16 13:23:34;;;;;;;4.25;3.90;;;;;;;;;;5095384;28;20225;-67
2023/09/16 13:26:11;;;;;;;4.10;3.70;;;;;;;;;;5096466;28;20297;-67
2023/09/16 13:28:39;;;;;;;3.85;3.55;;;;;;;;;;5094775;28;20200;-67
2023/09/16 13:31:07;;;;;;;4.15;3.85;;;;;;;;;;5094814;28;20234;-67
2023/09/16 13:33:53;;;;;;;3.78;3.47;;;;;;;;;;5095312;28;20290;-67
2023/09/16 13:36:22;;;;;;;3.95;3.65;;;;;;;;;;5095193;28;20206;-67
2023/09/16 13:38:51;;;;;;;3.65;3.45;;;;;;;;;;5094784;28;20226;-68
2023/09/16 13:41:20;;;;;;;3.92;3.63;;;;;;;;;;5095127;28;20202;-67
2023/09/16 13:43:48;;;;;;;4.07;3.67;;;;;;;;;;5095342;28;20203;-67
2023/09/16 13:46:17;;;;;;;3.83;3.53;;;;;;;;;;5095504;28;20242;-67
2023/09/16 13:48:44;;;;;;;3.63;3.33;;;;;;;;;;5094874;28;20203;-67
2023/09/16 13:51:13;;;;;;;3.67;3.40;;;;;;;;;;5095007;28;20407;-67
2023/09/16 13:53:40;;;;;;;3.47;3.20;;;;;;;;;;5094503;28;20211;-67
2023/09/16 13:56:10;;;;;;;3.83;3.53;;;;;;;;;;5094648;28;20231;-67
2023/09/16 13:58:37;;;;;;;3.60;3.40;;;;;;;;;;5094907;28;20211;-67
2023/09/16 14:01:05;;;;;;;3.80;3.50;;;;;;;;;;5094711;28;20209;-67
2023/09/16 14:03:32;;;;;;;3.50;3.30;;;;;;;;;;5094495;28;20829;-67
2023/09/16 14:06:00;;;;;;;3.95;3.65;;;;;;;;;;5094761;28;20204;-67
2023/09/16 14:08:27;;;;;;;4.00;3.70;;;;;;;;;;5094247;28;20253;-67
2023/09/16 14:10:55;;;;;;;3.63;3.40;;;;;;;;;;5093853;28;20326;-67
2023/09/16 14:13:24;;;;;;;3.58;3.33;;;;;;;;;;5094346;28;20243;-67
2023/09/16 14:15:52;;;;;;;3.97;3.72;;;;;;;;;;5094675;28;20229;-68
2023/09/16 14:18:19;;;;;;;4.20;3.90;;;;;;;;;;5095160;28;20203;-67
2023/09/16 14:20:50;;;;;;;4.18;3.88;;;;;;;;;;5094705;28;20199;-67
2023/09/16 14:23:18;;;;;;;4.15;3.85;;;;;;;;;;5095238;28;20269;-67
2023/09/16 14:25:45;;;;;;;4.22;3.92;;;;;;;;;;5093983;28;20200;-67
2023/09/16 14:28:13;;;;;;;4.07;3.78;;;;;;;;;;5094242;28;20209;-67
2023/09/16 14:30:42;;;;;;;4.07;3.78;;;;;;;;;;5094451;28;20326;-67
2023/09/16 14:33:09;;;;;;;4.22;3.92;;;;;;;;;;5093807;28;20208;-67
2023/09/16 14:35:37;;;;;;;4.03;3.72;;;;;;;;;;5094340;28;20803;-68
2023/09/16 14:38:05;;;;;;;4.00;3.70;;;;;;;;;;5094300;28;20195;-67
2023/09/16 14:40:32;;;;;;;4.15;3.85;;;;;;;;;;5096214;28;20207;-67
2023/09/16 14:42:59;;;;;;;4.20;3.90;;;;;;;;;;5098273;28;20294;-67
2023/09/16 14:45:27;;;;;;;4.22;3.88;;;;;;;;;;5098153;28;20212;-67
2023/09/16 14:47:56;;;;;;;4.40;4.10;;;;;;;;;;5098296;28;20210;-67
2023/09/16 14:50:23;;;;;;;4.30;4.00;;;;;;;;;;5097259;28;20252;-67